createdAt,value
2022-08-28T00:02:09.388Z,38.05
2022-08-28T00:04:37.494Z,39.25
2022-08-28T00:07:05.942Z,37.40
2022-08-28T00:09:33.933Z,36.80
2022-08-28T00:12:03.822Z,35.05
2022-08-28T00:14:31.775Z,35.20
2022-08-28T00:16:59.820Z,38.65
2022-08-28T00:19:27.756Z,35.92
2022-08-28T00:21:55.717Z,37.63
2022-08-28T00:24:23.710Z,34.53
2022-08-28T00:27:09.224Z,37.05
2022-08-28T00:29:38.481Z,38.22
2022-08-28T00:32:08.816Z,37.45
2022-08-28T00:34:36.808Z,37.72
2022-08-28T00:37:04.709Z,39.55
2022-08-28T00:39:32.849Z,37.22
2022-08-28T00:42:00.806Z,36.40
2022-08-28T00:44:30.207Z,34.55
2022-08-28T00:47:00.525Z,36.05
2022-08-28T00:49:31.481Z,36.83
2022-08-28T00:52:09.057Z,35.08
2022-08-28T00:54:45.712Z,36.45
2022-08-28T00:57:30.402Z,35.17
2022-08-28T00:59:58.454Z,36.85
2022-08-28T01:02:28.389Z,34.58
2022-08-28T01:04:56.728Z,33.90
2022-08-28T01:07:24.631Z,33.13
2022-08-28T01:09:55.652Z,33.42
2022-08-28T01:12:26.351Z,37.47
2022-08-28T01:14:59.962Z,38.17
2022-08-28T01:17:32.026Z,39.95
2022-08-28T01:20:03.451Z,39.55
2022-08-28T01:22:37.300Z,39.25
2022-08-28T01:25:09.803Z,39.90
2022-08-28T01:27:41.777Z,38.05
2022-08-28T01:30:11.298Z,38.83
2022-08-28T01:32:41.549Z,38.53
2022-08-28T01:35:12.463Z,36.80
2022-08-28T01:37:40.400Z,38.03
2022-08-28T01:40:12.619Z,37.28
2022-08-28T01:42:42.162Z,37.75
2022-08-28T01:45:13.562Z,35.15
2022-08-28T01:47:43.682Z,37.85
2022-08-28T01:50:14.773Z,36.13
2022-08-28T01:52:43.238Z,36.20
2022-08-28T01:55:13.097Z,38.40
2022-08-28T01:57:44.522Z,36.92
2022-08-28T02:00:13.623Z,35.95
2022-08-28T02:02:41.594Z,36.38
2022-08-28T02:05:10.999Z,35.20
2022-08-28T02:07:39.193Z,38.92
2022-08-28T02:10:08.025Z,38.92
2022-08-28T02:12:37.402Z,38.85
2022-08-28T02:15:07.427Z,38.05
2022-08-28T02:17:36.057Z,37.78
2022-08-28T02:20:05.467Z,38.35
2022-08-28T02:22:33.371Z,36.35
2022-08-28T02:25:01.491Z,35.78
2022-08-28T02:27:29.511Z,36.05
2022-08-28T02:29:59.648Z,35.17
2022-08-28T02:32:27.926Z,36.40
2022-08-28T02:34:56.327Z,36.83
2022-08-28T02:37:24.656Z,36.78
2022-08-28T02:39:56.282Z,38.38
2022-08-28T02:42:24.511Z,37.63
2022-08-28T02:44:52.410Z,37.75
2022-08-28T02:47:21.888Z,36.40
2022-08-28T02:49:49.914Z,36.42
2022-08-28T02:52:19.049Z,36.17
2022-08-28T02:54:47.488Z,34.95
2022-08-28T02:57:15.389Z,35.20
2022-08-28T02:59:44.580Z,36.83
2022-08-28T03:02:12.511Z,38.30
2022-08-28T03:04:41.779Z,36.28
2022-08-28T03:07:13.477Z,35.65
2022-08-28T03:09:43.603Z,36.90
2022-08-28T03:12:13.165Z,36.58
2022-08-28T03:14:42.412Z,38.22
2022-08-28T03:17:10.390Z,37.00
2022-08-28T03:19:38.409Z,39.15
2022-08-28T03:22:07.623Z,35.80
2022-08-28T03:24:34.662Z,35.58
2022-08-28T03:27:02.493Z,34.72
2022-08-28T03:29:30.460Z,36.53
2022-08-28T03:31:58.525Z,34.67
2022-08-28T03:34:26.394Z,35.33
2022-08-28T03:36:54.299Z,32.85
2022-08-28T03:39:23.487Z,37.97
2022-08-28T03:41:51.546Z,34.22
2022-08-28T03:44:19.431Z,32.90
2022-08-28T03:46:47.285Z,32.25
2022-08-28T03:49:15.307Z,35.17
2022-08-28T03:51:44.979Z,35.38
2022-08-28T03:54:12.875Z,33.75
2022-08-28T03:56:43.391Z,33.47
2022-08-28T03:59:11.256Z,34.40
2022-08-28T04:01:39.406Z,30.60
2022-08-28T04:04:07.492Z,34.63
2022-08-28T04:06:36.066Z,33.17
2022-08-28T04:09:04.442Z,33.05
2022-08-28T04:11:32.747Z,33.80
2022-08-28T04:14:01.979Z,31.70
2022-08-28T04:16:29.906Z,33.10
2022-08-28T04:18:59.367Z,35.10
2022-08-28T04:21:28.016Z,32.35
2022-08-28T04:23:56.950Z,32.13
2022-08-28T04:26:27.385Z,33.47
2022-08-28T04:28:56.375Z,36.30
2022-08-28T04:31:32.335Z,35.35
2022-08-28T04:34:01.466Z,35.05
2022-08-28T04:36:29.787Z,33.40
2022-08-28T04:38:58.534Z,35.28
2022-08-28T04:41:26.738Z,33.00
2022-08-28T04:43:56.415Z,32.97
2022-08-28T04:46:26.153Z,33.70
2022-08-28T04:48:59.480Z,34.22
2022-08-28T04:51:27.735Z,31.65
2022-08-28T04:53:55.768Z,32.15
2022-08-28T04:56:23.876Z,32.10
2022-08-28T04:58:51.926Z,35.13
2022-08-28T05:01:24.339Z,36.20
2022-08-28T05:03:57.859Z,34.28
2022-08-28T05:06:28.144Z,33.28
2022-08-28T05:08:57.724Z,33.65
2022-08-28T05:11:34.624Z,35.28
2022-08-28T05:14:04.133Z,34.58
2022-08-28T05:16:32.680Z,34.22
2022-08-28T05:19:02.675Z,36.70
2022-08-28T05:21:30.599Z,37.80
2022-08-28T05:23:59.230Z,33.78
2022-08-28T05:26:29.675Z,33.03
2022-08-28T05:28:59.194Z,35.53
2022-08-28T05:31:28.728Z,36.28
2022-08-28T05:33:56.918Z,35.65
2022-08-28T05:36:32.766Z,34.90
2022-08-28T05:39:02.482Z,36.58
2022-08-28T05:41:32.350Z,34.65
2022-08-28T05:44:02.074Z,33.92
2022-08-28T05:46:30.387Z,35.25
2022-08-28T05:48:59.626Z,32.25
2022-08-28T05:51:29.568Z,31.52
2022-08-28T05:53:58.557Z,32.50
2022-08-28T05:56:29.583Z,33.00
2022-08-28T05:58:58.596Z,34.40
2022-08-28T06:01:28.581Z,33.50
2022-08-28T06:03:59.844Z,34.67
2022-08-28T06:06:34.082Z,32.10
2022-08-28T06:09:04.124Z,32.35
2022-08-28T06:11:32.414Z,31.48
2022-08-28T06:14:02.583Z,31.88
2022-08-28T06:16:31.682Z,30.02
2022-08-28T06:19:00.519Z,31.58
2022-08-28T06:21:30.434Z,29.52
2022-08-28T06:23:58.397Z,29.20
2022-08-28T06:26:26.431Z,28.77
2022-08-28T06:28:54.894Z,28.67
2022-08-28T06:31:25.916Z,32.90
2022-08-28T06:33:56.066Z,30.90
2022-08-28T06:36:24.274Z,29.77
2022-08-28T06:38:54.979Z,29.25
2022-08-28T06:41:23.239Z,28.20
2022-08-28T06:43:51.277Z,29.92
2022-08-28T06:46:19.523Z,30.08
2022-08-28T06:48:47.415Z,28.67
2022-08-28T06:51:15.929Z,26.33
2022-08-28T06:53:45.898Z,27.77
2022-08-28T06:56:26.026Z,23.92
2022-08-28T06:58:57.590Z,26.52
2022-08-28T07:01:29.363Z,27.20
2022-08-28T07:04:00.665Z,26.73
2022-08-28T07:06:31.470Z,26.83
2022-08-28T07:08:59.363Z,28.63
2022-08-28T07:11:31.294Z,25.55
2022-08-28T07:13:59.914Z,26.73
2022-08-28T07:16:29.852Z,27.48
2022-08-28T07:18:58.628Z,26.45
2022-08-28T07:21:26.888Z,26.85
2022-08-28T07:23:55.790Z,27.08
2022-08-28T07:26:26.125Z,31.25
2022-08-28T07:29:09.342Z,30.73
2022-08-28T07:31:40.743Z,27.67
2022-08-28T07:34:09.682Z,28.65
2022-08-28T07:36:37.900Z,31.38
2022-08-28T07:39:06.721Z,28.75
2022-08-28T07:41:38.944Z,29.23
2022-08-28T07:44:27.042Z,28.48
2022-08-28T07:46:55.873Z,27.35
2022-08-28T07:49:24.644Z,27.00
2022-08-28T07:51:53.977Z,28.35
2022-08-28T07:54:22.631Z,26.42
2022-08-28T07:56:51.408Z,25.73
2022-08-28T07:59:22.030Z,25.45
2022-08-28T08:01:51.708Z,24.05
2022-08-28T08:04:21.643Z,25.80
2022-08-28T08:06:54.481Z,23.27
2022-08-28T08:09:26.133Z,24.88
2022-08-28T08:11:56.519Z,20.83
2022-08-28T08:14:26.859Z,20.48
2022-08-28T08:16:55.035Z,20.55
2022-08-28T08:19:23.152Z,20.30
2022-08-28T08:21:54.626Z,18.73
2022-08-28T08:24:26.395Z,19.80
2022-08-28T08:26:59.870Z,20.15
2022-08-28T08:29:32.259Z,21.25
2022-08-28T08:32:05.600Z,18.33
2022-08-28T08:34:35.259Z,18.27
2022-08-28T08:37:03.317Z,17.98
2022-08-28T08:39:31.944Z,18.13
2022-08-28T08:42:03.127Z,17.38
2022-08-28T08:44:35.373Z,16.27
2022-08-28T08:47:15.176Z,14.40
2022-08-28T08:49:49.013Z,19.15
2022-08-28T08:52:37.959Z,16.77
2022-08-28T08:55:24.882Z,16.95
2022-08-28T08:58:00.130Z,14.65
2022-08-28T09:00:31.858Z,15.82
2022-08-28T09:03:05.979Z,14.30
2022-08-28T09:05:48.162Z,14.60
2022-08-28T09:08:26.694Z,14.45
2022-08-28T09:11:01.911Z,12.57
2022-08-28T09:13:39.818Z,14.55
2022-08-28T09:16:18.104Z,14.43
2022-08-28T09:18:48.440Z,14.27
2022-08-28T09:21:29.276Z,13.55
2022-08-28T09:24:05.736Z,14.35
2022-08-28T09:26:40.620Z,12.75
2022-08-28T09:29:16.543Z,12.32
2022-08-28T09:31:45.989Z,12.30
2022-08-28T09:34:24.003Z,10.70
2022-08-28T09:36:52.868Z,12.23
2022-08-28T09:39:22.650Z,12.07
2022-08-28T09:42:12.153Z,11.93
2022-08-28T09:45:09.494Z,12.60
2022-08-28T09:47:48.535Z,9.85
2022-08-28T09:50:35.296Z,11.48
2022-08-28T09:53:20.185Z,9.77
2022-08-28T09:55:58.396Z,9.95
2022-08-28T09:58:34.799Z,9.98
2022-08-28T10:01:11.045Z,10.63
2022-08-28T10:03:47.577Z,10.13
2022-08-28T10:06:22.229Z,10.20
2022-08-28T10:09:00.264Z,10.32
2022-08-28T10:11:38.019Z,10.27
2022-08-28T10:14:24.782Z,7.65
2022-08-28T10:17:02.222Z,8.50
2022-08-28T10:20:02.353Z,8.48
2022-08-28T10:22:38.392Z,6.97
2022-08-28T10:25:21.768Z,7.78
2022-08-28T10:28:06.250Z,6.60
2022-08-28T10:30:39.922Z,7.55
2022-08-28T10:33:22.515Z,8.25
2022-08-28T10:35:57.162Z,7.45
2022-08-28T10:38:30.843Z,8.65
2022-08-28T10:41:04.016Z,7.20
2022-08-28T10:43:36.404Z,7.85
2022-08-28T10:46:07.373Z,7.88
2022-08-28T10:48:40.869Z,8.70
2022-08-28T10:51:18.268Z,7.47
2022-08-28T10:53:51.794Z,8.07
2022-08-28T10:56:23.029Z,8.02
2022-08-28T10:58:56.420Z,8.25
2022-08-28T11:01:29.239Z,7.68
2022-08-28T11:04:00.881Z,7.05
2022-08-28T11:06:34.881Z,8.23
2022-08-28T11:09:22.929Z,6.65
2022-08-28T11:11:53.521Z,7.60
2022-08-28T11:14:28.472Z,7.13
2022-08-28T11:17:01.350Z,7.55
2022-08-28T11:19:48.033Z,8.05
2022-08-28T11:22:22.810Z,9.27
2022-08-28T11:25:04.374Z,7.65
2022-08-28T11:27:36.833Z,6.72
2022-08-28T11:30:35.478Z,8.13
2022-08-28T11:33:07.240Z,7.70
2022-08-28T11:35:51.577Z,6.22
2022-08-28T11:39:11.896Z,6.85
2022-08-28T11:44:41.251Z,5.10
2022-08-28T11:47:35.402Z,8.50
2022-08-28T11:50:11.927Z,8.35
2022-08-28T11:52:59.255Z,7.95
2022-08-28T11:55:37.084Z,7.70
2022-08-28T12:00:52.069Z,6.90
2022-08-28T12:03:31.307Z,7.13
2022-08-28T12:06:00.706Z,7.50
2022-08-28T12:09:13.021Z,7.03
2022-08-28T12:12:01.577Z,6.75
2022-08-28T12:15:07.626Z,7.85
2022-08-28T12:17:46.858Z,6.10
2022-08-28T12:20:23.999Z,5.72
2022-08-28T12:22:54.323Z,6.00
2022-08-28T12:25:34.014Z,4.80
2022-08-28T12:28:12.965Z,4.47
2022-08-28T12:30:48.652Z,5.57
2022-08-28T12:33:25.520Z,5.13
2022-08-28T12:35:53.458Z,4.93
2022-08-28T12:38:22.905Z,4.93
2022-08-28T12:40:53.524Z,5.53
2022-08-28T12:43:32.124Z,5.30
2022-08-28T12:46:03.700Z,5.40
2022-08-28T12:48:34.750Z,5.40
2022-08-28T12:51:05.634Z,4.85
2022-08-28T12:53:43.380Z,4.50
2022-08-28T12:56:13.292Z,4.32
2022-08-28T12:58:43.231Z,4.50
2022-08-28T13:01:15.429Z,4.72
2022-08-28T13:03:51.051Z,5.15
2022-08-28T13:06:24.898Z,5.80
2022-08-28T13:08:55.753Z,5.55
2022-08-28T13:11:23.683Z,5.35
2022-08-28T13:13:52.599Z,5.60
2022-08-28T13:16:42.594Z,6.07
2022-08-28T13:19:30.336Z,5.10
2022-08-28T13:22:01.971Z,6.65
2022-08-28T13:24:45.651Z,6.03
2022-08-28T13:27:25.349Z,5.40
2022-08-28T13:29:59.770Z,5.05
2022-08-28T13:32:30.069Z,5.00
2022-08-28T13:35:28.919Z,6.32
2022-08-28T13:37:58.347Z,5.22
2022-08-28T13:43:18.928Z,4.55
2022-08-28T13:45:49.122Z,5.35
2022-08-28T13:48:19.623Z,5.03
2022-08-28T13:50:51.875Z,5.57
2022-08-28T13:53:21.097Z,5.47
2022-08-28T13:55:51.296Z,5.45
2022-08-28T13:58:19.285Z,5.88
2022-08-28T14:00:49.411Z,5.55
2022-08-28T14:03:35.673Z,6.38
2022-08-28T14:06:08.404Z,6.57
2022-08-28T14:08:36.528Z,5.60
2022-08-28T14:11:04.711Z,5.90
2022-08-28T14:13:32.703Z,6.18
2022-08-28T14:16:00.745Z,6.05
2022-08-28T14:18:29.013Z,5.68
2022-08-28T14:20:57.038Z,6.05
2022-08-28T14:23:26.370Z,5.82
2022-08-28T14:25:54.418Z,5.00
2022-08-28T14:28:22.555Z,5.80
2022-08-28T14:30:52.224Z,5.45
2022-08-28T14:33:21.100Z,5.35
2022-08-28T14:35:49.920Z,5.53
2022-08-28T14:38:18.745Z,5.55
2022-08-28T14:40:48.053Z,6.00
2022-08-28T14:43:17.217Z,6.20
2022-08-28T14:45:46.929Z,6.35
2022-08-28T14:48:16.042Z,5.35
2022-08-28T14:50:45.805Z,4.75
2022-08-28T14:53:14.759Z,5.70
2022-08-28T14:55:44.131Z,5.07
2022-08-28T14:58:14.093Z,6.05
2022-08-28T15:00:43.148Z,5.22
2022-08-28T15:03:11.990Z,5.30
2022-08-28T15:05:40.126Z,5.47
2022-08-28T15:08:09.279Z,5.05
2022-08-28T15:10:39.081Z,5.57
2022-08-28T15:13:09.872Z,5.55
2022-08-28T15:15:41.221Z,5.97
2022-08-28T15:18:11.201Z,5.95
2022-08-28T15:20:40.604Z,5.60
2022-08-28T15:23:09.765Z,5.50
2022-08-28T15:25:38.082Z,5.60
2022-08-28T15:28:06.555Z,5.93
2022-08-28T15:30:34.700Z,5.25
2022-08-28T15:33:04.097Z,5.20
2022-08-28T15:35:33.694Z,6.03
2022-08-28T15:38:01.633Z,5.75
2022-08-28T15:40:47.038Z,5.68
2022-08-28T15:43:15.203Z,6.13
2022-08-28T15:45:43.962Z,6.45
2022-08-28T15:48:14.186Z,5.65
2022-08-28T15:50:42.803Z,5.03
2022-08-28T15:53:10.879Z,5.43
2022-08-28T15:55:38.850Z,4.85
2022-08-28T15:58:08.900Z,5.45
2022-08-28T16:00:42.286Z,5.57
2022-08-28T16:03:10.290Z,4.82
2022-08-28T16:05:40.923Z,4.75
2022-08-28T16:08:10.535Z,5.13
2022-08-28T16:10:38.604Z,5.00
2022-08-28T16:13:06.919Z,5.20
2022-08-28T16:15:35.165Z,5.00
2022-08-28T16:18:03.294Z,5.15
2022-08-28T16:20:31.187Z,4.85
2022-08-28T16:23:00.408Z,5.60
2022-08-28T16:25:28.358Z,5.43
2022-08-28T16:27:56.381Z,6.18
2022-08-28T16:30:24.614Z,5.63
2022-08-28T16:32:54.167Z,5.35
2022-08-28T16:35:22.289Z,4.53
2022-08-28T16:37:50.542Z,5.00
2022-08-28T16:40:20.006Z,5.68
2022-08-28T16:42:52.104Z,5.88
2022-08-28T16:45:20.574Z,5.45
2022-08-28T16:47:49.053Z,4.57
2022-08-28T16:50:17.123Z,4.72
2022-08-28T16:52:45.047Z,5.07
2022-08-28T16:55:14.023Z,4.88
2022-08-28T16:57:43.991Z,5.38
2022-08-28T17:00:14.020Z,5.55
2022-08-28T17:02:42.263Z,5.32
2022-08-28T17:05:11.666Z,5.43
2022-08-28T17:07:40.854Z,5.38
2022-08-28T17:10:11.149Z,5.40
2022-08-28T17:12:39.197Z,5.85
2022-08-28T17:15:11.343Z,5.97
2022-08-28T17:17:39.669Z,5.78
2022-08-28T17:20:29.797Z,6.05
2022-08-28T17:22:57.002Z,5.72
2022-08-28T17:25:25.566Z,6.13
2022-08-28T17:27:53.537Z,5.72
2022-08-28T17:30:23.495Z,6.20
2022-08-28T17:32:52.008Z,13.52
2022-08-28T17:35:20.604Z,25.65
2022-08-28T17:37:53.689Z,18.42
2022-08-28T17:40:22.685Z,7.88
2022-08-28T17:42:53.610Z,6.00
2022-08-28T17:45:22.929Z,5.90
2022-08-28T17:47:52.384Z,5.88
2022-08-28T17:50:21.132Z,5.70
2022-08-28T17:52:49.111Z,6.10
2022-08-28T17:55:18.528Z,6.43
2022-08-28T17:57:46.395Z,6.03
2022-08-28T18:00:17.020Z,5.78
2022-08-28T18:02:47.243Z,6.60
2022-08-28T18:05:15.393Z,6.45
2022-08-28T18:07:43.341Z,6.43
2022-08-28T18:10:12.034Z,6.40
2022-08-28T18:12:40.310Z,6.28
2022-08-28T18:15:10.227Z,6.70
2022-08-28T18:17:38.801Z,6.50
2022-08-28T18:20:10.393Z,6.55
2022-08-28T18:22:38.622Z,6.15
2022-08-28T18:25:07.854Z,6.13
2022-08-28T18:27:36.542Z,6.47
2022-08-28T18:30:05.411Z,7.00
2022-08-28T18:32:33.349Z,7.25
2022-08-28T18:35:01.367Z,6.07
2022-08-28T18:37:30.598Z,5.72
2022-08-28T18:39:58.540Z,7.03
2022-08-28T18:42:26.478Z,6.50
2022-08-28T18:44:54.897Z,6.18
2022-08-28T18:47:22.806Z,6.53
2022-08-28T18:49:50.696Z,6.38
2022-08-28T18:52:18.867Z,7.20
2022-08-28T18:54:50.145Z,6.40
2022-08-28T18:57:18.612Z,6.97
2022-08-28T18:59:47.506Z,6.70
2022-08-28T19:02:15.932Z,7.30
2022-08-28T19:04:44.600Z,7.63
2022-08-28T19:07:12.826Z,6.63
2022-08-28T19:09:41.400Z,7.30
2022-08-28T19:12:10.825Z,7.18
2022-08-28T19:14:38.760Z,6.93
2022-08-28T19:17:06.697Z,6.93
2022-08-28T19:19:34.743Z,5.75
2022-08-28T19:22:02.625Z,7.05
2022-08-28T19:24:31.565Z,7.57
2022-08-28T19:26:59.595Z,6.32
2022-08-28T19:29:28.914Z,7.15
2022-08-28T19:31:56.925Z,6.47
2022-08-28T19:34:24.838Z,7.35
2022-08-28T19:36:52.720Z,7.20
2022-08-28T19:39:20.690Z,7.15
2022-08-28T19:41:48.924Z,6.78
2022-08-28T19:44:16.825Z,7.50
2022-08-28T19:46:46.169Z,7.18
2022-08-28T19:49:14.410Z,7.75
2022-08-28T19:51:42.596Z,7.22
2022-08-28T19:54:14.023Z,6.90
2022-08-28T19:56:42.165Z,7.85
2022-08-28T19:59:10.539Z,6.72
2022-08-28T20:01:43.471Z,6.90
2022-08-28T20:04:17.689Z,7.82
2022-08-28T20:06:46.296Z,7.32
2022-08-28T20:09:17.203Z,6.50
2022-08-28T20:11:46.909Z,6.88
2022-08-28T20:14:15.913Z,7.20
2022-08-28T20:16:46.029Z,7.63
2022-08-28T20:19:16.221Z,7.30
2022-08-28T20:21:47.019Z,7.57
2022-08-28T20:24:17.587Z,7.85
2022-08-28T20:26:45.795Z,7.93
2022-08-28T20:29:15.111Z,8.18
2022-08-28T20:31:44.746Z,7.88
2022-08-28T20:34:13.390Z,7.57
2022-08-28T20:36:42.619Z,7.82
2022-08-28T20:39:11.182Z,8.23
2022-08-28T20:41:41.584Z,7.70
2022-08-28T20:44:12.686Z,8.63
2022-08-28T20:46:42.137Z,9.85
2022-08-28T20:49:10.867Z,9.23
2022-08-28T20:51:56.319Z,9.52
2022-08-28T20:54:30.185Z,8.93
2022-08-28T20:56:59.868Z,8.57
2022-08-28T20:59:34.458Z,8.43
2022-08-28T21:02:10.584Z,8.30
2022-08-28T21:04:39.978Z,8.65
2022-08-28T21:07:07.970Z,8.10
2022-08-28T21:09:58.128Z,7.60
2022-08-28T21:12:25.405Z,8.65
2022-08-28T21:14:53.490Z,8.30
2022-08-28T21:21:36.785Z,8.70
2022-08-28T21:24:06.481Z,8.48
2022-08-28T21:26:37.443Z,8.45
2022-08-28T21:29:06.475Z,9.00
2022-08-28T21:31:34.919Z,9.13
2022-08-28T21:34:02.945Z,9.23
2022-08-28T21:36:31.495Z,8.77
2022-08-28T21:38:59.429Z,9.30
2022-08-28T21:41:27.542Z,8.98
2022-08-28T21:43:57.030Z,8.18
2022-08-28T21:46:25.260Z,8.52
2022-08-28T21:48:56.147Z,8.45
2022-08-28T21:51:25.762Z,9.60
2022-08-28T21:53:55.583Z,8.85
2022-08-28T21:56:26.532Z,9.02
2022-08-28T21:58:56.929Z,8.60
2022-08-28T22:01:27.878Z,8.57
2022-08-28T22:03:57.039Z,9.43
2022-08-28T22:06:26.268Z,8.73
2022-08-28T22:08:55.712Z,9.93
2022-08-28T22:11:25.183Z,9.23
2022-08-28T22:13:53.427Z,9.27
2022-08-28T22:16:24.648Z,9.68
2022-08-28T22:18:52.578Z,9.30
2022-08-28T22:21:41.822Z,10.05
2022-08-28T22:24:10.410Z,10.20
2022-08-28T22:26:38.586Z,10.10
2022-08-28T22:29:07.907Z,10.45
2022-08-28T22:31:43.898Z,8.75
2022-08-28T22:34:14.363Z,9.35
2022-08-28T22:36:42.249Z,10.57
2022-08-28T22:39:10.185Z,9.70
2022-08-28T22:41:38.673Z,9.38
2022-08-28T22:44:07.163Z,10.32
2022-08-28T22:46:35.994Z,10.30
2022-08-28T22:49:05.876Z,10.40
2022-08-28T22:51:35.307Z,9.77
2022-08-28T22:54:03.406Z,9.75
2022-08-28T22:56:31.280Z,10.57
2022-08-28T22:58:59.649Z,9.73
2022-08-28T23:01:27.978Z,10.10
2022-08-28T23:03:55.891Z,11.27
2022-08-28T23:06:25.181Z,9.50
2022-08-28T23:08:53.108Z,10.20
2022-08-28T23:11:21.401Z,10.50
2022-08-28T23:13:49.414Z,10.13
2022-08-28T23:16:23.670Z,10.52
2022-08-28T23:19:08.685Z,11.27
2022-08-28T23:21:42.707Z,10.13
2022-08-28T23:24:12.978Z,10.77
2022-08-28T23:26:40.857Z,11.73
2022-08-28T23:29:09.010Z,11.05
2022-08-28T23:31:37.272Z,10.15
2022-08-28T23:34:06.254Z,10.30
2022-08-28T23:36:35.823Z,10.75
2022-08-28T23:39:06.447Z,11.35
2022-08-28T23:41:34.773Z,10.65
2022-08-28T23:44:07.778Z,11.07
2022-08-28T23:46:36.470Z,9.88
2022-08-28T23:49:05.085Z,10.23
2022-08-28T23:51:33.403Z,10.55
2022-08-28T23:54:01.306Z,10.45
2022-08-28T23:56:30.550Z,10.65
2022-08-28T23:58:58.447Z,9.63
